Time;durP1;ratioP1;P1;durP2;ratioP2;P2;SDS_P1;SDS_P2;PMS_P1;PMS_P2;Temp;Humidity;BMP_temperature;BMP_pressure;BME280_temperature;BME280_humidity;BME280_pressure;Samples;Min_cycle;Max_cycle;Signal;HPM_P1;HPM_P2
2022/04/26 03:37:41;;;;;;;2.05;1.00;;;;;;;12.87;87.30;99380.51;1757165;81;21053;-73
2022/04/26 03:40:09;;;;;;;1.40;0.50;;;;;;;12.89;87.04;99384.58;1757416;81;21094;-74
2022/04/26 03:42:36;;;;;;;2.45;0.82;;;;;;;12.89;86.72;99387.25;1757076;81;21026;-73
2022/04/26 03:45:05;;;;;;;1.82;0.62;;;;;;;12.86;86.89;99389.03;1756885;81;21473;-72
2022/04/26 03:47:31;;;;;;;1.37;0.40;;;;;;;12.81;86.65;99391.06;1745473;81;22560;-71
2022/04/26 03:49:59;;;;;;;0.93;0.40;;;;;;;12.77;86.79;99400.58;1740297;81;21113;-71
2022/04/26 03:52:25;;;;;;;;;;;;;;;12.78;86.93;99406.73;1734538;81;21477;-72
2022/04/26 03:54:52;;;;;;;1.25;0.55;;;;;;;12.79;86.94;99404.34;1736115;81;20165;-71
2022/04/26 03:57:19;;;;;;;2.00;0.30;;;;;;;12.74;87.39;99405.56;1756660;80;21558;-72
2022/04/26 03:59:45;;;;;;;1.95;0.60;;;;;;;12.72;87.41;99407.12;1750497;81;21034;-73
2022/04/26 04:02:15;;;;;;;1.50;0.90;;;;;;;12.74;87.53;99405.56;1723814;83;21007;-71
2022/04/26 04:04:42;;;;;;;4.00;0.90;;;;;;;12.74;87.49;99424.28;1757424;81;21074;-73
2022/04/26 04:07:08;;;;;;;1.98;0.70;;;;;;;12.76;87.48;99425.67;1756800;81;21137;-72
2022/04/26 04:09:36;;;;;;;1.98;0.50;;;;;;;12.79;87.56;99427.07;1757387;81;21022;-72
2022/04/26 04:12:06;;;;;;;2.22;0.55;;;;;;;12.79;87.39;99428.41;1736111;81;21022;-73
2022/04/26 04:14:33;;;;;;;3.40;0.72;;;;;;;12.78;87.49;99428.94;1757124;81;21029;-72
2022/04/26 04:16:59;;;;;;;1.00;0.40;;;;;;;12.78;87.75;99430.27;1755242;81;21086;-72
2022/04/26 04:19:27;;;;;;;2.22;1.02;;;;;;;12.80;87.83;99431.39;1771180;81;21524;-72
2022/04/26 04:21:54;;;;;;;2.20;0.60;;;;;;;12.81;87.88;99429.03;1756689;81;21069;-73
2022/04/26 04:24:21;;;;;;;1.35;0.53;;;;;;;12.83;87.99;99424.27;1756925;81;21105;-74
2022/04/26 04:26:47;;;;;;;3.17;0.72;;;;;;;12.86;87.98;99430.48;1757374;81;21010;-72
2022/04/26 04:29:16;;;;;;;1.42;0.35;;;;;;;12.90;87.99;99431.66;1756920;81;21133;-73
2022/04/26 04:31:43;;;;;;;3.67;0.70;;;;;;;12.94;87.96;99432.03;1724391;83;21004;-73
2022/04/26 04:34:10;;;;;;;2.58;1.45;;;;;;;12.93;87.81;99429.88;1756888;81;21443;-72
2022/04/26 04:36:39;;;;;;;2.45;0.60;;;;;;;12.96;87.86;99437.47;1756844;81;21014;-70
2022/04/26 04:39:05;;;;;;;2.25;0.50;;;;;;;12.97;87.78;99444.44;1744230;81;21795;-71
2022/04/26 04:41:37;;;;;;;1.12;0.50;;;;;;;12.94;87.81;99444.91;1759866;81;21133;-73
2022/04/26 04:44:07;;;;;;;1.05;0.30;;;;;;;12.90;87.73;99450.38;1734317;80;21057;-72
2022/04/26 04:46:34;;;;;;;2.77;0.98;;;;;;;12.86;87.95;99454.55;1757290;81;21018;-72
2022/04/26 04:49:02;;;;;;;3.95;0.62;;;;;;;12.85;88.27;99456.95;1756969;81;21038;-72
2022/04/26 04:51:30;;;;;;;1.25;0.50;;;;;;;12.84;88.68;99455.30;1756776;81;21563;-72
2022/04/26 04:53:56;;;;;;;1.87;0.78;;;;;;;12.88;89.07;99461.02;1757354;81;21042;-75
2022/04/26 04:56:26;;;;;;;2.85;0.50;;;;;;;12.91;89.24;99458.72;1756812;81;20982;-74
2022/04/26 04:58:54;;;;;;;1.45;0.40;;;;;;;12.94;89.17;99468.14;1750605;81;21522;-74
2022/04/26 05:01:21;;;;;;;1.77;0.88;;;;;;;12.95;89.42;99463.91;1711808;81;21111;-71
2022/04/26 05:03:47;;;;;;;1.42;0.40;;;;;;;12.92;88.99;99462.20;1702299;83;21561;-71
2022/04/26 05:06:16;;;;;;;1.90;0.50;;;;;;;12.90;89.15;99463.76;1708194;82;21097;-73
2022/04/26 05:08:45;;;;;;;1.62;0.60;;;;;;;12.94;89.03;99466.30;1704460;83;21038;-73
2022/04/26 05:11:14;;;;;;;5.05;0.50;;;;;;;12.98;88.80;99471.49;1709870;81;21643;-70
2022/04/26 05:13:41;;;;;;;1.27;0.80;;;;;;;12.97;88.48;99475.72;1731997;81;21302;-74
2022/04/26 05:16:09;;;;;;;2.08;0.45;;;;;;;12.98;88.14;99473.36;1733982;81;21029;-72
2022/04/26 05:18:36;;;;;;;2.83;0.70;;;;;;;13.01;88.42;99474.23;1731815;81;20998;-73
2022/04/26 05:21:10;;;;;;;2.15;0.68;;;;;;;13.07;88.53;99473.31;1761524;81;20971;-73
2022/04/26 05:26:21;;;;;;;3.87;1.22;;;;;;;13.19;88.26;99480.89;1710522;83;21070;-74
2022/04/26 05:28:47;;;;;;;3.58;1.00;;;;;;;13.25;88.30;99485.33;1713681;84;21069;-73
2022/04/26 05:31:15;;;;;;;4.62;1.27;;;;;;;13.27;87.54;99479.75;1713048;84;21550;-72
2022/04/26 05:33:41;;;;;;;10.48;5.35;;;;;;;13.29;87.33;99494.25;1695810;84;20993;-73
2022/04/26 05:36:08;;;;;;;0.88;0.60;;;;;;;13.32;87.10;99493.31;1701412;84;21051;-71
2022/04/26 05:38:35;;;;;;;3.15;0.80;;;;;;;13.35;86.98;99492.03;1713282;84;21097;-73
2022/04/26 05:41:02;;;;;;;5.35;1.10;;;;;;;13.34;86.62;99493.90;1713277;82;21102;-73
2022/04/26 05:43:31;;;;;;;1.90;0.93;;;;;;;13.28;86.55;99492.11;1713425;84;21074;-71
2022/04/26 05:45:58;;;;;;;1.15;0.40;;;;;;;13.22;86.94;99496.50;1701052;84;21038;-73
2022/04/26 05:48:27;;;;;;;1.27;1.17;;;;;;;13.22;87.03;99499.18;1705951;82;21047;-73
2022/04/26 05:50:55;;;;;;;1.07;0.45;;;;;;;13.22;87.15;99496.50;1778479;80;20966;-70
2022/04/26 05:53:21;;;;;;;2.05;0.75;;;;;;;13.24;87.45;99503.78;1761486;81;21038;-72
2022/04/26 05:55:47;;;;;;;1.75;0.50;;;;;;;13.29;87.48;99505.77;1739775;81;21104;-73
2022/04/26 05:58:14;;;;;;;3.47;1.80;;;;;;;13.34;87.54;99512.63;1760219;81;21018;-71
2022/04/26 06:00:41;;;;;;;1.30;0.50;;;;;;;13.33;87.56;99512.33;1742365;81;21537;-71
2022/04/26 06:03:10;;;;;;;1.92;1.00;;;;;;;13.32;87.36;99513.91;1757903;81;21054;-71
2022/04/26 06:05:38;;;;;;;3.60;0.40;;;;;;;13.33;87.46;99519.55;1747490;81;21057;-70
2022/04/26 06:08:08;;;;;;;2.33;0.55;;;;;;;13.38;87.42;99522.37;1752960;81;21161;-73
2022/04/26 06:10:39;;;;;;;1.77;0.40;;;;;;;13.43;86.59;99523.32;1761503;81;21034;-73
2022/04/26 06:13:08;;;;;;;3.37;0.70;;;;;;;13.48;86.16;99522.63;1728393;83;20992;-73
2022/04/26 06:15:36;;;;;;;2.70;0.65;;;;;;;13.55;86.06;99530.58;1728341;82;21114;-74
2022/04/26 06:18:03;;;;;;;2.40;0.45;;;;;;;13.65;85.87;99527.34;1699699;83;21118;-72
2022/04/26 06:20:30;;;;;;;1.60;0.50;;;;;;;13.77;85.60;99521.52;1688325;84;21617;-72
2022/04/26 06:22:58;;;;;;;0.65;0.40;;;;;;;13.83;84.54;99525.95;1697271;84;21014;-72
2022/04/26 06:25:26;;;;;;;2.92;0.40;;;;;;;13.88;84.15;99529.27;1713434;84;21054;-76
2022/04/26 06:27:53;;;;;;;1.95;0.50;;;;;;;13.93;83.54;99529.40;1713258;84;21092;-75
2022/04/26 06:30:22;;;;;;;5.87;0.72;;;;;;;13.98;83.27;99533.55;1691331;84;21058;-75
2022/04/26 06:32:50;;;;;;;0.68;0.45;;;;;;;14.01;83.07;99532.57;1684384;82;21183;-73
2022/04/26 06:35:16;;;;;;;0.98;0.62;;;;;;;14.06;82.94;99535.08;1684396;82;21073;-73
2022/04/26 06:37:44;;;;;;;0.53;0.50;;;;;;;14.12;82.56;99539.51;1683340;82;21042;-74
2022/04/26 06:40:11;;;;;;;2.52;0.50;;;;;;;14.19;82.10;99546.39;1708513;82;21380;-75
2022/04/26 06:42:38;;;;;;;1.67;0.45;;;;;;;14.27;81.92;99540.40;1713490;83;21085;-74
2022/04/26 06:45:05;;;;;;;1.02;0.40;;;;;;;14.36;81.83;99540.34;1713394;84;21011;-73
2022/04/26 06:47:32;;;;;;;1.72;0.30;;;;;;;14.47;80.08;99545.44;1713030;84;21365;-72
2022/04/26 06:49:58;;;;;;;0.57;0.40;;;;;;;14.55;79.43;99539.17;1713214;84;21602;-73
2022/04/26 06:52:25;;;;;;;2.22;0.30;;;;;;;14.73;80.01;99541.45;1712891;84;21090;-72
2022/04/26 06:54:51;;;;;;;1.70;0.85;;;;;;;14.93;78.55;99540.55;1705354;82;21077;-74
2022/04/26 06:57:17;;;;;;;3.72;0.20;;;;;;;15.09;76.96;99543.05;1683920;84;21577;-73
2022/04/26 06:59:45;;;;;;;1.15;0.28;;;;;;;15.21;75.25;99544.34;1709844;82;21061;-75
2022/04/26 07:02:11;;;;;;;0.60;0.30;;;;;;;15.31;75.90;99544.56;1713151;82;21069;-74
2022/04/26 07:04:39;;;;;;;2.30;0.20;;;;;;;15.45;75.04;99541.59;1713307;84;21074;-73
2022/04/26 07:07:05;;;;;;;;;;;;;;;15.54;74.52;99540.97;1715966;83;21055;-75
2022/04/26 07:09:32;;;;;;;1.52;0.20;;;;;;;15.68;74.16;99540.13;1761506;81;20141;-75
2022/04/26 07:11:58;;;;;;;1.27;0.20;;;;;;;15.76;72.94;99543.82;1761432;81;21013;-74
2022/04/26 07:14:25;;;;;;;1.87;0.40;;;;;;;15.85;72.23;99539.38;1761443;81;21045;-74
2022/04/26 07:16:52;;;;;;;1.07;0.17;;;;;;;15.92;71.57;99538.16;1758734;80;21041;-74
2022/04/26 07:19:22;;;;;;;0.82;0.40;;;;;;;16.01;70.90;99541.28;1761738;81;21006;-75
2022/04/26 07:21:50;;;;;;;1.52;0.40;;;;;;;16.14;70.13;99544.16;1738129;81;21056;-72
2022/04/26 07:24:17;;;;;;;2.55;0.20;;;;;;;16.28;69.31;99547.34;1738497;81;21037;-74
2022/04/26 07:26:44;;;;;;;0.45;0.28;;;;;;;16.40;69.04;99544.02;1743787;81;21125;-75
2022/04/26 07:29:10;;;;;;;2.37;0.50;;;;;;;16.57;67.73;99541.84;1733384;81;21061;-73
2022/04/26 07:31:38;;;;;;;0.40;0.20;;;;;;;16.70;66.80;99542.84;1728420;83;21586;-72
2022/04/26 07:34:24;;;;;;;0.78;0.30;;;;;;;16.81;64.57;99541.92;1728840;83;21088;-72
2022/04/26 07:36:59;;;;;;;1.75;0.20;;;;;;;16.86;64.53;99543.37;1709876;84;21614;-73
2022/04/26 07:39:24;;;;;;;1.40;0.25;;;;;;;16.81;64.17;99533.04;1713043;84;21191;-71
2022/04/26 07:41:51;;;;;;;0.50;0.20;;;;;;;16.74;63.98;99544.80;1693089;84;21068;-74
2022/04/26 07:44:18;;;;;;;1.65;0.28;;;;;;;16.80;64.68;99543.50;1695884;82;21042;-73
2022/04/26 07:46:49;;;;;;;3.90;0.30;;;;;;;16.93;64.29;99543.17;1708543;84;21083;-74
2022/04/26 07:49:23;;;;;;;0.42;0.40;;;;;;;17.11;63.91;99546.10;1708978;84;21492;-71
2022/04/26 07:51:51;;;;;;;0.70;0.20;;;;;;;17.23;63.13;99537.34;1699324;84;21530;-73
2022/04/26 07:54:18;;;;;;;1.45;0.33;;;;;;;17.41;61.06;99548.34;1723016;82;21081;-72
2022/04/26 07:56:46;;;;;;;1.17;0.30;;;;;;;17.46;60.93;99552.44;1686699;84;21516;-72
2022/04/26 07:59:14;;;;;;;1.42;0.30;;;;;;;17.60;60.94;99552.84;1704105;84;21545;-74
2022/04/26 08:01:42;;;;;;;2.12;0.65;;;;;;;17.64;60.12;99555.30;1707405;82;21150;-75
2022/04/26 08:04:09;;;;;;;2.50;0.30;;;;;;;17.69;60.14;99560.76;1699375;84;21003;-74
2022/04/26 08:06:37;;;;;;;1.90;0.72;;;;;;;17.69;60.14;99560.76;1713140;84;21078;-73
2022/04/26 08:09:04;;;;;;;2.35;0.37;;;;;;;17.71;60.44;99567.24;1703115;84;21065;-75
2022/04/26 08:11:31;;;;;;;2.05;0.30;;;;;;;17.67;60.48;99566.94;1720128;82;21053;-72
2022/04/26 08:14:00;;;;;;;1.22;0.45;;;;;;;17.66;60.40;99563.14;1761964;80;21616;-73
2022/04/26 08:16:27;;;;;;;1.65;0.25;;;;;;;17.64;61.58;99566.09;1742160;81;21101;-73
2022/04/26 08:18:54;;;;;;;0.90;0.50;;;;;;;17.66;61.18;99566.64;1728445;80;21056;-72
2022/04/26 08:21:22;;;;;;;1.57;0.30;;;;;;;17.70;61.24;99564.26;1745312;81;21093;-75
2022/04/26 08:29:22;;;;;;;1.32;0.50;;;;;;;17.70;60.89;99582.58;1761597;81;21085;-73
2022/04/26 08:31:50;;;;;;;0.95;0.50;;;;;;;17.55;61.98;99570.30;1761338;81;21102;-74
2022/04/26 08:34:18;;;;;;;0.72;0.30;;;;;;;17.56;60.58;99580.02;1761317;81;20994;-73
2022/04/26 08:36:46;;;;;;;2.08;0.68;;;;;;;17.48;61.32;99581.83;1761448;81;21006;-73
2022/04/26 08:39:14;;;;;;;2.85;0.93;;;;;;;17.48;61.32;99581.83;1761375;81;21509;-74
2022/04/26 08:41:41;;;;;;;1.27;0.20;;;;;;;17.53;62.42;99594.53;1761635;81;21053;-73
2022/04/26 08:44:09;;;;;;;0.80;0.30;;;;;;;17.45;61.26;99591.75;1761364;81;21767;-74
2022/04/26 08:52:10;;;;;;;1.05;0.30;;;;;;;17.30;61.52;99591.03;1761447;81;21066;-72
2022/04/26 08:54:38;;;;;;;1.85;0.40;;;;;;;17.12;62.77;99596.18;1761637;81;21054;-74
2022/04/26 08:57:08;;;;;;;0.98;0.20;;;;;;;17.12;62.77;99596.18;1761548;81;21609;-74
2022/04/26 08:59:38;;;;;;;3.77;0.45;;;;;;;17.02;62.32;99597.41;1713931;83;21127;-72
2022/04/26 09:02:23;;;;;;;0.40;0.20;;;;;;;16.88;62.91;99605.84;1712899;84;21210;-74
2022/04/26 09:04:51;;;;;;;;;;;;;;;16.81;63.42;99615.13;1709624;84;21600;-70
2022/04/26 09:07:33;;;;;;;2.47;0.70;;;;;;;16.74;64.05;99616.62;1699885;83;20133;-73
2022/04/26 09:10:19;;;;;;;2.55;0.30;;;;;;;16.60;64.34;99615.35;1684672;82;21046;-72
2022/04/26 09:13:15;;;;;;;2.42;0.42;;;;;;;16.57;64.96;99615.83;1683762;84;21049;-73
2022/04/26 09:15:58;;;;;;;1.02;0.30;;;;;;;16.63;65.05;99617.53;1710744;83;21549;-74
2022/04/26 09:18:30;;;;;;;1.77;0.53;;;;;;;16.67;64.99;99618.16;1712927;83;21155;-73
2022/04/26 09:21:06;;;;;;;0.40;0.20;;;;;;;16.66;65.07;99617.05;1712999;82;21098;-74
2022/04/26 09:23:34;;;;;;;0.68;0.23;;;;;;;16.68;65.02;99614.93;1711335;82;21535;-74
2022/04/26 09:26:10;;;;;;;2.12;0.20;;;;;;;16.71;64.29;99619.83;1693622;82;21706;-72
2022/04/26 09:28:42;;;;;;;0.40;0.20;;;;;;;16.66;63.92;99629.16;1713119;83;21190;-74
2022/04/26 09:31:28;;;;;;;0.90;0.20;;;;;;;16.57;62.13;99630.09;1713180;83;21140;-73
2022/04/26 09:33:57;;;;;;;1.52;0.17;;;;;;;16.40;61.98;99627.94;1713142;82;21131;-74
2022/04/26 09:36:28;;;;;;;0.30;0.20;;;;;;;16.09;62.39;99643.02;1761560;81;21518;-74
2022/04/26 09:39:04;;;;;;;2.00;0.15;;;;;;;15.96;63.34;99640.09;1739232;81;21565;-72
2022/04/26 09:41:32;;;;;;;0.28;0.10;;;;;;;15.89;63.32;99643.98;1761663;81;21081;-73
2022/04/26 09:44:06;;;;;;;0.90;0.25;;;;;;;15.82;63.58;99640.08;1732879;81;21017;-74
2022/04/26 09:46:56;;;;;;;0.85;0.20;;;;;;;15.82;63.88;99644.65;1747256;81;21054;-74
2022/04/26 09:49:22;;;;;;;2.35;0.37;;;;;;;15.74;64.37;99648.00;1760068;81;21085;-74
2022/04/26 09:51:59;;;;;;;0.98;0.57;;;;;;;15.63;64.89;99652.05;1761428;81;21014;-72
2022/04/26 09:54:27;;;;;;;2.10;0.50;;;;;;;15.58;65.39;99653.58;1761351;81;21223;-73
2022/04/26 09:56:54;;;;;;;0.53;0.20;;;;;;;15.56;65.63;99652.20;1761335;81;21644;-72
2022/04/26 09:59:29;;;;;;;1.25;0.33;;;;;;;15.58;66.07;99658.95;1739552;81;21611;-72
2022/04/26 10:01:59;;;;;;;1.17;0.10;;;;;;;15.62;65.81;99649.89;1760470;81;21077;-73
2022/04/26 10:04:29;;;;;;;1.22;0.40;;;;;;;15.65;65.92;99644.06;1761600;81;21041;-74
2022/04/26 10:07:10;;;;;;;2.52;0.30;;;;;;;15.68;66.39;99643.56;1761263;81;21176;-75
2022/04/26 10:09:39;;;;;;;0.78;0.37;;;;;;;15.76;66.15;99644.58;1761354;80;21065;-72
2022/04/26 10:12:07;;;;;;;1.75;0.47;;;;;;;15.82;65.77;99654.05;1738074;81;21482;-74
2022/04/26 10:17:03;;;;;;;0.20;0.20;;;;;;;15.97;66.02;99646.27;1798534;79;22786;-74
2022/04/26 10:19:40;;;;;;;0.47;0.42;;;;;;;16.05;65.71;99652.63;1755738;80;21157;-73
2022/04/26 10:22:10;;;;;;;0.20;0.17;;;;;;;16.18;64.48;99650.68;1749372;80;21565;-74
2022/04/26 10:24:41;;;;;;;1.85;0.15;;;;;;;16.31;63.75;99657.09;1728502;83;21017;-73
2022/04/26 10:27:25;;;;;;;1.57;0.35;;;;;;;16.46;63.03;99666.79;1733069;81;21040;-74
2022/04/26 10:29:52;;;;;;;0.70;0.13;;;;;;;16.59;62.71;99660.25;1732421;81;21556;-72
2022/04/26 10:32:34;;;;;;;0.53;0.17;;;;;;;16.71;61.91;99658.31;1732865;81;20997;-72
2022/04/26 10:35:28;;;;;;;1.12;0.37;;;;;;;16.82;60.55;99656.63;1735118;81;21075;-73
2022/04/26 10:38:15;;;;;;;0.30;0.10;;;;;;;16.91;60.74;99659.19;1735960;82;21038;-74
2022/04/26 10:41:07;;;;;;;1.67;0.30;;;;;;;17.00;60.47;99659.56;1717542;82;21030;-72
2022/04/26 10:43:33;;;;;;;0.30;0.10;;;;;;;17.08;60.32;99673.14;1735547;81;21093;-76
2022/04/26 10:46:13;;;;;;;0.68;0.20;;;;;;;17.09;60.09;99676.94;1695465;82;21074;-74
2022/04/26 10:48:42;;;;;;;0.82;0.10;;;;;;;17.12;59.89;99674.27;1686975;84;21025;-77
2022/04/26 10:51:35;;;;;;;0.47;0.10;;;;;;;17.16;58.06;99686.70;1691450;84;21099;-74
2022/04/26 10:54:04;;;;;;;0.20;0.20;;;;;;;17.11;58.44;99683.42;1682154;84;21073;-72
2022/04/26 10:56:32;;;;;;;2.17;0.10;;;;;;;17.09;58.24;99686.89;1677344;83;21078;-72
2022/04/26 10:58:59;;;;;;;1.07;0.17;;;;;;;17.11;58.51;99690.96;1714277;83;21045;-72
2022/04/26 11:01:27;;;;;;;;;;;;;;;17.11;58.51;99690.96;1722271;82;21559;-73
2022/04/26 11:03:57;;;;;;;2.08;0.20;;;;;;;17.10;58.22;99695.24;1712935;83;20532;-72
2022/04/26 11:06:39;;;;;;;0.60;0.10;;;;;;;16.97;58.44;99693.73;1718111;82;21118;-74
2022/04/26 11:09:14;;;;;;;0.57;0.20;;;;;;;16.96;58.54;99697.47;1709806;83;21277;-73
2022/04/26 11:11:55;;;;;;;0.50;0.10;;;;;;;16.99;57.67;99690.77;1715421;82;21202;-71
2022/04/26 11:14:24;;;;;;;0.90;0.20;;;;;;;16.98;58.19;99694.00;1723022;82;21057;-72
2022/04/26 11:16:59;;;;;;;4.40;0.20;;;;;;;16.98;58.19;99694.00;1719098;82;21110;-76
2022/04/26 11:19:33;;;;;;;0.53;0.10;;;;;;;17.01;58.03;99691.34;1715391;82;21106;-74
2022/04/26 11:22:16;;;;;;;1.47;0.20;;;;;;;17.03;58.57;99693.28;1716970;82;21080;-74
2022/04/26 11:30:43;;;;;;;0.35;0.30;;;;;;;16.97;58.05;99700.97;1703882;83;21094;-76
2022/04/26 11:33:19;;;;;;;3.80;0.45;;;;;;;16.91;58.29;99702.27;1728760;82;21061;-73
2022/04/26 11:35:55;;;;;;;3.92;0.78;;;;;;;16.98;58.52;99698.58;1693001;82;21408;-72
2022/04/26 11:38:24;;;;;;;4.50;1.30;;;;;;;17.05;57.87;99693.84;1715428;82;21049;-73
2022/04/26 11:40:54;;;;;;;3.52;2.05;;;;;;;17.08;57.72;99694.17;1711833;83;21094;-70
2022/04/26 11:43:31;;;;;;;7.72;1.95;;;;;;;17.08;57.15;99702.75;1706445;83;21528;-74
2022/04/26 11:45:58;;;;;;;3.17;1.17;;;;;;;16.93;60.25;99701.48;1706511;83;21083;-73
2022/04/26 11:48:29;;;;;;;2.60;0.60;;;;;;;16.93;60.25;99701.48;1684062;83;21104;-75
2022/04/26 11:50:58;;;;;;;2.58;0.42;;;;;;;16.74;63.16;99712.16;1711030;83;21094;-74
2022/04/26 11:53:34;;;;;;;1.62;0.37;;;;;;;16.74;63.16;99712.16;1692238;83;21104;-73
2022/04/26 11:56:03;;;;;;;0.30;0.20;;;;;;;16.62;63.93;99705.52;1679074;83;21146;-73
2022/04/26 11:58:34;;;;;;;1.80;0.15;;;;;;;16.54;64.87;99709.96;1687167;84;21415;-73
2022/04/26 12:01:05;;;;;;;1.30;0.20;;;;;;;16.44;64.29;99709.23;1655366;84;21032;-74
2022/04/26 12:03:53;;;;;;;0.20;0.20;;;;;;;16.46;64.62;99708.48;1657968;86;21010;-75
2022/04/26 12:06:29;;;;;;;0.42;0.10;;;;;;;16.50;65.41;99708.79;1658400;86;21044;-73
2022/04/26 12:09:01;;;;;;;1.65;0.10;;;;;;;16.42;65.68;99704.63;1625134;86;21103;-74
2022/04/26 12:11:36;;;;;;;0.37;0.10;;;;;;;16.36;63.19;99717.70;1632981;86;21129;-74
2022/04/26 12:14:14;;;;;;;1.10;0.33;;;;;;;16.19;62.57;99717.66;1636221;86;21570;-73
2022/04/26 12:16:54;;;;;;;;;;;;;;;16.05;62.79;99721.17;1660756;86;21048;-74
2022/04/26 12:19:15;;;;;;;0.78;0.10;;;;;;;15.98;63.17;99720.49;1656967;86;20164;-74
2022/04/26 12:21:55;;;;;;;2.92;0.10;;;;;;;15.87;63.62;99726.72;1640443;86;21122;-73
2022/04/26 12:24:29;;;;;;;2.12;0.30;;;;;;;15.84;64.45;99725.84;1655574;84;21142;-74
2022/04/26 12:27:05;;;;;;;0.93;0.40;;;;;;;15.80;65.37;99722.81;1655774;85;21102;-72
2022/04/26 12:29:43;;;;;;;1.92;0.37;;;;;;;15.82;65.98;99725.27;1663105;85;21593;-73
2022/04/26 12:32:12;;;;;;;0.62;0.20;;;;;;;15.89;66.12;99731.33;1655274;85;21084;-73
2022/04/26 12:34:52;;;;;;;0.80;0.10;;;;;;;16.00;65.91;99730.47;1663181;85;21092;-74
2022/04/26 12:37:21;;;;;;;1.02;0.50;;;;;;;16.09;66.55;99735.77;1633104;85;21066;-75
2022/04/26 12:40:00;;;;;;;0.50;0.20;;;;;;;16.18;66.70;99736.21;1650339;87;21063;-73
2022/04/26 12:42:34;;;;;;;0.68;0.37;;;;;;;16.22;66.19;99731.98;1641429;87;21129;-74
2022/04/26 12:45:23;;;;;;;0.90;0.40;;;;;;;16.23;66.47;99729.56;1659951;84;21155;-72
2022/04/26 12:50:58;;;;;;;0.40;0.40;;;;;;;16.27;66.13;99721.83;1682232;84;21047;-74
2022/04/26 12:53:32;;;;;;;1.47;0.30;;;;;;;16.30;65.79;99733.47;1690811;84;21099;-73
2022/04/26 12:56:10;;;;;;;0.80;0.20;;;;;;;16.34;65.91;99725.20;1678790;84;21114;-75
2022/04/26 12:58:44;;;;;;;0.50;0.47;;;;;;;16.38;65.64;99721.50;1666333;85;20993;-74
2022/04/26 13:01:11;;;;;;;1.00;0.20;;;;;;;16.44;66.38;99717.84;1677669;84;21137;-74
2022/04/26 13:03:40;;;;;;;1.27;0.20;;;;;;;16.52;66.29;99718.27;1678234;84;21075;-74
2022/04/26 13:06:17;;;;;;;1.20;0.47;;;;;;;16.64;65.48;99717.38;1678045;84;21066;-74
2022/04/26 13:08:49;;;;;;;0.30;0.30;;;;;;;16.74;64.34;99722.92;1678983;84;21572;-73
2022/04/26 13:11:18;;;;;;;1.05;0.20;;;;;;;16.78;62.90;99724.06;1679012;84;21059;-74
2022/04/26 13:13:49;;;;;;;1.47;0.30;;;;;;;16.73;62.25;99722.11;1678297;84;20993;-74
2022/04/26 13:16:17;;;;;;;0.50;0.30;;;;;;;16.69;61.99;99729.59;1677705;84;21112;-74
2022/04/26 13:18:45;;;;;;;1.10;1.00;;;;;;;16.61;61.85;99720.55;1679009;84;21184;-74
2022/04/26 13:21:13;;;;;;;0.35;0.30;;;;;;;16.55;61.83;99724.48;1679131;84;21524;-73
2022/04/26 13:23:41;;;;;;;1.62;0.40;;;;;;;16.57;61.86;99727.48;1678460;84;21152;-74
2022/04/26 13:26:08;;;;;;;0.50;0.40;;;;;;;16.56;61.38;99734.74;1678390;84;21077;-75
2022/04/26 13:28:35;;;;;;;1.30;0.30;;;;;;;16.54;61.43;99737.67;1679028;84;21149;-73
2022/04/26 13:31:03;;;;;;;1.17;0.47;;;;;;;16.44;60.88;99733.97;1679125;84;21073;-75
2022/04/26 13:33:30;;;;;;;0.80;0.50;;;;;;;16.28;61.52;99730.20;1675852;84;21068;-74
2022/04/26 13:35:58;;;;;;;0.72;0.60;;;;;;;16.14;61.90;99736.38;1681158;83;21126;-73
2022/04/26 13:38:24;;;;;;;0.82;0.50;;;;;;;16.02;62.23;99732.39;1694339;83;21586;-72
2022/04/26 13:40:53;;;;;;;1.45;0.75;;;;;;;15.97;62.64;99744.38;1694393;83;21204;-71
2022/04/26 13:43:23;;;;;;;0.85;0.45;;;;;;;15.94;62.62;99740.84;1694032;85;21082;-74
2022/04/26 13:45:50;;;;;;;1.30;0.60;;;;;;;15.93;62.98;99738.66;1698016;83;21050;-72
2022/04/26 13:48:16;;;;;;;1.30;0.93;;;;;;;15.94;63.13;99731.44;1711337;83;21112;-73
2022/04/26 13:50:44;;;;;;;1.10;1.00;;;;;;;15.98;63.37;99744.69;1694977;83;21089;-73
2022/04/26 13:53:11;;;;;;;1.85;0.98;;;;;;;16.01;63.75;99742.87;1695824;83;21093;-71
2022/04/26 13:55:37;;;;;;;0.47;0.47;;;;;;;16.07;63.23;99746.48;1694701;83;21051;-74
2022/04/26 13:58:08;;;;;;;1.30;0.95;;;;;;;16.10;62.93;99744.10;1695391;83;21566;-74
2022/04/26 14:00:36;;;;;;;1.30;0.55;;;;;;;16.13;62.64;99746.32;1695506;83;21105;-74
2022/04/26 14:03:04;;;;;;;0.57;0.50;;;;;;;16.12;62.04;99752.77;1695940;84;21578;-76
2022/04/26 14:05:31;;;;;;;0.78;0.40;;;;;;;16.06;61.92;99759.62;1695718;84;21124;-74
2022/04/26 14:07:58;;;;;;;1.17;0.30;;;;;;;15.99;62.35;99758.93;1694469;83;21155;-76
2022/04/26 14:10:25;;;;;;;2.12;0.40;;;;;;;15.94;64.04;99763.69;1695791;83;21568;-73
2022/04/26 14:12:55;;;;;;;0.72;0.53;;;;;;;15.85;65.51;99767.27;1695604;83;21542;-74
2022/04/26 14:23:42;;;;;;;1.45;0.70;;;;;;;15.60;70.68;99782.28;1709650;82;21012;-74
2022/04/26 14:26:09;;;;;;;1.47;0.28;;;;;;;15.56;71.14;99783.28;1715570;82;21018;-74
2022/04/26 14:28:36;;;;;;;1.20;0.33;;;;;;;15.53;70.41;99783.73;1714809;82;21566;-74
2022/04/26 14:31:06;;;;;;;0.60;0.30;;;;;;;15.53;69.76;99786.96;1714456;82;21092;-73
2022/04/26 14:33:33;;;;;;;0.35;0.20;;;;;;;15.52;69.59;99792.02;1704705;82;21061;-75
2022/04/26 14:36:01;;;;;;;0.50;0.40;;;;;;;15.50;68.95;99790.94;1689023;83;21520;-73
2022/04/26 14:38:28;;;;;;;0.98;0.40;;;;;;;15.49;68.62;99791.98;1695644;83;21089;-73
2022/04/26 14:40:54;;;;;;;0.20;0.20;;;;;;;15.44;68.05;99791.86;1695949;83;21137;-75
2022/04/26 14:43:20;;;;;;;0.93;0.47;;;;;;;15.38;68.00;99791.45;1696010;83;22266;-74
2022/04/26 14:45:46;;;;;;;0.55;0.30;;;;;;;15.35;68.42;99796.77;1695191;83;21013;-72
2022/04/26 14:48:17;;;;;;;1.35;0.20;;;;;;;15.36;68.56;99804.30;1694899;83;21066;-73
2022/04/26 14:50:44;;;;;;;0.65;0.37;;;;;;;15.38;68.61;99798.97;1694602;83;21127;-73
2022/04/26 14:53:10;;;;;;;0.20;0.20;;;;;;;15.41;68.38;99803.08;1695779;83;21333;-74
2022/04/26 14:55:38;;;;;;;0.60;0.20;;;;;;;15.40;67.99;99809.48;1700173;82;21034;-73
2022/04/26 14:58:06;;;;;;;0.40;0.40;;;;;;;15.30;68.43;99810.61;1719889;82;21181;-73
2022/04/26 15:00:35;;;;;;;0.65;0.37;;;;;;;15.14;68.73;99820.14;1720386;82;21472;-75
2022/04/26 15:03:03;;;;;;;0.33;0.33;;;;;;;15.06;69.02;99825.32;1741231;82;21499;-73
2022/04/26 15:05:30;;;;;;;0.40;0.30;;;;;;;15.01;68.62;99829.74;1719216;82;21015;-76
2022/04/26 15:10:42;;;;;;;0.70;0.70;;;;;;;14.92;69.52;99843.50;1719922;82;21029;-75
2022/04/26 15:18:40;;;;;;;5.35;0.93;;;;;;;14.61;72.07;99855.27;1674891;84;21160;-75
2022/04/26 15:21:09;;;;;;;;;;;;;;;14.53;72.44;99857.72;1610237;88;21598;-75
2022/04/26 15:23:37;;;;;;;1.00;0.90;;;;;;;14.50;72.95;99866.20;1674729;84;20479;-75
2022/04/26 15:26:06;;;;;;;0.85;0.85;;;;;;;14.45;73.53;99871.94;1674620;84;21059;-74
2022/04/26 15:28:34;;;;;;;1.95;1.17;;;;;;;14.45;74.50;99870.60;1675775;84;21026;-74
2022/04/26 15:31:03;;;;;;;0.98;0.98;;;;;;;14.42;74.83;99878.59;1607402;88;21042;-75
2022/04/26 15:33:29;;;;;;;1.42;0.98;;;;;;;14.40;75.00;99879.33;1670307;84;21061;-74
2022/04/26 15:35:57;;;;;;;1.05;0.90;;;;;;;14.40;74.92;99874.78;1586206;89;21076;-73
2022/04/26 15:38:27;;;;;;;1.50;0.65;;;;;;;14.39;75.12;99880.36;1634953;86;21171;-74
2022/04/26 15:40:53;;;;;;;3.20;0.90;;;;;;;14.39;75.14;99883.89;1637401;86;21087;-74
2022/04/26 15:43:19;;;;;;;2.17;0.72;;;;;;;14.41;74.65;99885.81;1643951;86;21082;-73
2022/04/26 15:45:46;;;;;;;0.80;0.80;;;;;;;14.43;73.95;99882.92;1643244;85;21121;-74
2022/04/26 15:48:13;;;;;;;1.52;1.25;;;;;;;14.41;73.46;99886.34;1661917;85;21011;-74
2022/04/26 15:50:41;;;;;;;1.20;1.10;;;;;;;14.37;73.37;99886.47;1664372;85;21070;-72
2022/04/26 15:53:08;;;;;;;0.68;0.68;;;;;;;14.30;73.65;99886.56;1662634;85;21095;-74
2022/04/26 15:55:35;;;;;;;0.80;0.80;;;;;;;14.18;73.72;99897.72;1663246;85;21565;-71
2022/04/26 15:58:02;;;;;;;1.35;0.70;;;;;;;14.09;73.78;99899.89;1664178;85;21106;-74
2022/04/26 16:00:29;;;;;;;2.98;1.42;;;;;;;14.02;74.29;99903.16;1649574;86;22291;-73
2022/04/26 16:02:57;;;;;;;1.15;0.93;;;;;;;13.99;74.64;99911.63;1615827;87;21099;-73
2022/04/26 16:05:23;;;;;;;1.32;1.22;;;;;;;13.98;74.88;99916.70;1644229;86;21030;-75